createdAt,value
2022-08-01T00:02:29.232Z,24.60
2022-08-01T00:07:32.100Z,24.46
2022-08-01T00:12:35.168Z,22.87
2022-08-01T00:17:38.461Z,21.93
2022-08-01T00:22:41.461Z,22.41
2022-08-01T00:27:44.365Z,24.58
2022-08-01T00:32:47.273Z,24.78
2022-08-01T00:37:50.112Z,23.20
2022-08-01T00:42:53.005Z,22.15
2022-08-01T00:47:55.915Z,22.53
2022-08-01T00:53:00.160Z,24.65
2022-08-01T00:58:06.117Z,24.36
2022-08-01T01:03:09.814Z,22.85
2022-08-01T01:08:20.765Z,21.93
2022-08-01T01:13:49.609Z,22.41
2022-08-01T01:19:02.193Z,24.57
2022-08-01T01:24:11.967Z,23.78
2022-08-01T01:29:18.934Z,22.33
2022-08-01T01:34:24.781Z,22.50
2022-08-01T01:39:31.004Z,24.50
2022-08-01T01:44:35.620Z,24.00
2022-08-01T01:49:41.043Z,22.48
2022-08-01T01:54:46.671Z,21.52
2022-08-01T01:59:52.017Z,20.88
2022-08-01T02:04:56.499Z,21.49
2022-08-01T02:10:01.458Z,23.81
2022-08-01T02:15:06.165Z,24.18
2022-08-01T02:20:09.738Z,22.63
2022-08-01T02:25:28.178Z,21.61
2022-08-01T02:30:40.691Z,22.06
2022-08-01T02:36:30.305Z,24.16
2022-08-01T02:41:14.048Z,24.23
2022-08-01T02:46:26.899Z,22.63
2022-08-01T02:51:32.191Z,21.61
2022-08-01T02:56:36.097Z,21.96
2022-08-01T03:01:41.849Z,24.07
2022-08-01T03:06:46.965Z,23.93
2022-08-01T03:11:52.259Z,22.44
2022-08-01T03:16:57.107Z,21.51
2022-08-01T03:22:01.142Z,21.83
2022-08-01T03:27:05.222Z,23.94
2022-08-01T03:32:11.729Z,24.17
2022-08-01T03:38:00.325Z,22.59
2022-08-01T03:43:23.630Z,21.45
2022-08-01T03:48:33.609Z,21.90
2022-08-01T03:53:40.034Z,24.01
2022-08-01T03:58:50.039Z,23.38
2022-08-01T04:03:53.967Z,21.98
2022-08-01T04:08:56.967Z,21.16
2022-08-01T04:13:59.864Z,21.59
2022-08-01T04:19:03.282Z,23.85
2022-08-01T04:24:14.192Z,23.51
2022-08-01T04:29:18.841Z,22.10
2022-08-01T04:34:25.713Z,22.37
2022-08-01T04:39:32.990Z,24.58
2022-08-01T04:44:53.797Z,24.79
2022-08-01T04:49:57.824Z,23.33
2022-08-01T04:55:01.389Z,22.40
2022-08-01T05:00:05.487Z,21.77
2022-08-01T05:05:09.097Z,22.29
2022-08-01T05:10:12.418Z,24.23
2022-08-01T05:15:15.841Z,23.27
2022-08-01T05:20:18.859Z,22.06
2022-08-01T05:25:56.004Z,21.23
2022-08-01T05:30:47.519Z,21.85
2022-08-01T05:35:50.463Z,23.93
2022-08-01T05:40:53.309Z,23.15
2022-08-01T05:45:56.657Z,22.03
2022-08-01T05:50:59.575Z,21.36
2022-08-01T05:56:03.086Z,21.97
2022-08-01T06:01:05.931Z,24.20
2022-08-01T06:06:08.913Z,24.06
2022-08-01T06:11:24.044Z,22.72
2022-08-01T06:16:26.978Z,21.93
2022-08-01T06:21:29.853Z,21.41
2022-08-01T06:26:32.798Z,22.11
2022-08-01T06:31:35.769Z,24.42
2022-08-01T06:36:38.882Z,24.11
2022-08-01T06:41:42.725Z,22.87
2022-08-01T06:46:45.841Z,22.19
2022-08-01T06:51:48.714Z,21.74
2022-08-01T06:56:51.564Z,22.57
2022-08-01T07:01:54.461Z,25.12
2022-08-01T07:06:58.038Z,25.60
2022-08-01T07:12:01.426Z,24.22
2022-08-01T07:17:04.516Z,23.41
2022-08-01T07:22:07.531Z,22.87
2022-08-01T07:27:23.832Z,22.49
2022-08-01T07:32:30.443Z,22.17
2022-08-01T07:37:45.556Z,23.09
2022-08-01T07:42:52.396Z,24.86
2022-08-01T07:47:55.487Z,23.80
2022-08-01T07:52:58.373Z,23.16
2022-08-01T07:58:01.206Z,22.81
2022-08-01T08:03:04.228Z,22.56
2022-08-01T08:08:08.668Z,22.38
2022-08-01T08:13:11.608Z,22.25
2022-08-01T08:18:14.820Z,22.17
2022-08-01T08:23:42.520Z,22.18
2022-08-01T08:28:47.492Z,22.21
2022-08-01T08:33:50.292Z,22.24
2022-08-01T08:38:53.204Z,22.26
2022-08-01T08:43:57.927Z,22.29
2022-08-01T08:49:04.633Z,22.35
2022-08-01T08:54:12.703Z,22.40
2022-08-01T08:59:15.867Z,22.47
2022-08-01T09:04:19.376Z,22.53
2022-08-01T09:09:25.814Z,22.63
2022-08-01T09:14:31.239Z,22.76
2022-08-01T09:19:41.522Z,22.91
2022-08-01T09:25:18.149Z,23.04
2022-08-01T09:30:23.889Z,23.18
2022-08-01T09:35:36.210Z,23.33
2022-08-01T09:40:55.928Z,23.49
2022-08-01T09:46:12.590Z,23.69
2022-08-01T09:51:59.157Z,23.86
2022-08-01T09:57:15.384Z,24.04
2022-08-01T10:02:37.813Z,24.19
2022-08-01T10:07:58.172Z,24.31
2022-08-01T10:13:03.411Z,24.41
2022-08-01T10:18:16.387Z,24.48
2022-08-01T10:23:39.996Z,24.61
2022-08-01T10:28:49.320Z,24.80
2022-08-01T10:33:53.594Z,24.94
2022-08-01T10:38:57.301Z,25.06
2022-08-01T10:44:03.833Z,25.13
2022-08-01T10:49:16.631Z,25.24
2022-08-01T10:54:19.554Z,25.43
2022-08-01T10:59:49.115Z,25.64
2022-08-01T11:04:56.442Z,25.78
2022-08-01T11:10:14.935Z,25.77
2022-08-01T11:15:29.735Z,25.81
2022-08-01T11:20:41.761Z,25.94
2022-08-01T11:26:05.919Z,25.95
2022-08-01T11:31:14.094Z,25.90
2022-08-01T11:36:18.614Z,25.85
2022-08-01T11:41:38.044Z,25.85
2022-08-01T11:46:54.258Z,25.90
2022-08-01T11:52:04.510Z,25.98
2022-08-01T11:57:14.717Z,26.13
2022-08-01T12:02:30.889Z,26.16
2022-08-01T12:07:36.706Z,26.20
2022-08-01T12:12:46.333Z,26.24
2022-08-01T12:17:59.550Z,26.32
2022-08-01T12:23:06.948Z,26.48
2022-08-01T12:28:10.791Z,26.70
2022-08-01T12:33:19.856Z,26.90
2022-08-01T12:38:25.970Z,27.08
2022-08-01T12:43:32.593Z,27.20
2022-08-01T12:48:35.594Z,27.27
2022-08-01T12:53:40.821Z,27.42
2022-08-01T12:58:44.835Z,27.58
2022-08-01T13:04:07.680Z,27.71
2022-08-01T13:09:14.754Z,27.79
2022-08-01T13:14:30.424Z,27.79
2022-08-01T13:19:47.832Z,27.75
2022-08-01T13:24:50.742Z,27.75
2022-08-01T13:29:54.478Z,27.68
2022-08-01T13:35:11.400Z,27.60
2022-08-01T13:40:25.835Z,27.56
2022-08-01T13:45:28.706Z,27.51
2022-08-01T13:50:33.160Z,27.44
2022-08-01T13:55:36.052Z,27.37
2022-08-01T14:00:39.051Z,27.28
2022-08-01T14:05:41.937Z,27.20
2022-08-01T14:10:44.821Z,27.12
2022-08-01T14:15:48.422Z,27.04
2022-08-01T14:20:54.495Z,26.97
2022-08-01T14:26:04.131Z,26.86
2022-08-01T14:31:09.114Z,26.73
2022-08-01T14:36:29.669Z,26.63
2022-08-01T14:41:34.818Z,26.56
2022-08-01T14:46:37.959Z,26.53
2022-08-01T14:52:00.448Z,26.58
2022-08-01T14:57:04.664Z,26.70
2022-08-01T15:02:08.494Z,26.80
2022-08-01T15:07:12.410Z,26.84
2022-08-01T15:12:15.698Z,26.83
2022-08-01T15:17:21.600Z,26.79
2022-08-01T15:22:26.882Z,26.70
2022-08-01T15:27:30.232Z,26.63
2022-08-01T15:32:33.237Z,26.56
2022-08-01T15:37:40.877Z,26.50
2022-08-01T15:42:46.458Z,26.43
2022-08-01T15:47:49.332Z,26.37
2022-08-01T15:52:52.214Z,26.30
2022-08-01T15:57:55.825Z,26.25
2022-08-01T16:02:58.691Z,26.20
2022-08-01T16:08:03.578Z,26.15
2022-08-01T16:13:07.590Z,26.09
2022-08-01T16:18:16.140Z,26.03
2022-08-01T16:23:19.120Z,25.98
2022-08-01T16:28:22.076Z,25.96
2022-08-01T16:33:45.966Z,25.93
2022-08-01T16:38:48.157Z,25.90
2022-08-01T16:43:53.763Z,25.87
2022-08-01T16:48:58.036Z,25.85
2022-08-01T16:54:01.273Z,25.84
2022-08-01T16:59:06.971Z,25.82
2022-08-01T17:04:11.046Z,25.78
2022-08-01T17:09:13.908Z,25.72
2022-08-01T17:14:17.954Z,25.68
2022-08-01T17:19:26.808Z,25.63
2022-08-01T17:24:36.270Z,25.57
2022-08-01T17:29:43.839Z,25.51
2022-08-01T17:34:47.245Z,25.44
2022-08-01T17:39:50.310Z,25.36
2022-08-01T17:44:54.289Z,25.28
2022-08-01T17:50:02.638Z,25.21
2022-08-01T17:55:53.720Z,25.16
2022-08-01T18:00:30.005Z,25.10
2022-08-01T18:05:37.251Z,25.02
2022-08-01T18:10:40.437Z,24.94
2022-08-01T18:15:45.275Z,24.85
2022-08-01T18:20:48.267Z,24.78
2022-08-01T18:25:51.268Z,24.70
2022-08-01T18:30:57.313Z,24.58
2022-08-01T18:36:03.869Z,24.49
2022-08-01T18:41:10.210Z,24.41
2022-08-01T18:46:13.100Z,24.34
2022-08-01T18:51:16.006Z,24.26
2022-08-01T18:56:19.316Z,24.21
2022-08-01T19:01:22.597Z,24.15
2022-08-01T19:06:27.276Z,24.09
2022-08-01T19:11:32.199Z,24.04
2022-08-01T19:16:36.081Z,24.00
2022-08-01T19:21:44.634Z,23.94
2022-08-01T19:26:51.376Z,24.69
2022-08-01T19:31:54.477Z,27.21
2022-08-01T19:36:58.593Z,27.50
2022-08-01T19:42:01.727Z,26.40
2022-08-01T19:47:06.154Z,25.78
2022-08-01T19:52:09.991Z,25.38
2022-08-01T19:57:15.441Z,25.06
2022-08-01T20:02:22.886Z,24.80
2022-08-01T20:07:27.870Z,24.58
2022-08-01T20:12:31.181Z,24.38
2022-08-01T20:17:34.171Z,24.22
2022-08-01T20:22:41.180Z,24.08
2022-08-01T20:27:45.946Z,24.94
2022-08-01T20:32:49.340Z,27.31
2022-08-01T20:38:05.585Z,27.36
2022-08-01T20:43:11.838Z,26.21
2022-08-01T20:48:16.395Z,25.58
2022-08-01T20:53:19.330Z,25.16
2022-08-01T20:58:44.821Z,24.82
2022-08-01T21:04:32.966Z,24.49
2022-08-01T21:09:39.635Z,24.20
2022-08-01T21:14:56.100Z,24.99
2022-08-01T21:20:06.624Z,27.32
2022-08-01T21:25:13.342Z,27.67
2022-08-01T21:30:17.331Z,26.44
2022-08-01T21:35:22.662Z,25.68
2022-08-01T21:40:26.140Z,25.16
2022-08-01T21:45:30.143Z,24.74
2022-08-01T21:50:54.876Z,25.31
2022-08-01T21:56:14.905Z,27.56
2022-08-01T22:01:52.043Z,27.27
2022-08-01T22:07:00.174Z,25.97
2022-08-01T22:12:06.436Z,25.27
2022-08-01T22:17:14.019Z,24.78
2022-08-01T22:22:34.216Z,24.37
2022-08-01T22:28:05.765Z,25.16
2022-08-01T22:33:07.606Z,27.35
2022-08-01T22:38:20.995Z,27.29
2022-08-01T22:43:42.354Z,26.01
2022-08-01T22:48:51.334Z,25.20
2022-08-01T22:54:07.058Z,24.68
2022-08-01T22:59:42.585Z,24.24
2022-08-01T23:04:49.452Z,25.15
2022-08-01T23:09:55.277Z,27.22
2022-08-01T23:15:00.894Z,27.03
2022-08-01T23:20:06.924Z,25.71
2022-08-01T23:25:12.512Z,24.90
2022-08-01T23:30:15.653Z,24.36
2022-08-01T23:35:19.695Z,24.88
2022-08-01T23:40:24.960Z,27.10
2022-08-01T23:45:28.960Z,26.74
2022-08-01T23:50:51.828Z,25.40
2022-08-01T23:55:54.741Z,24.66
